Rockwood, New York
Current Conditions -  °F | °C
As of 8:35 AM on Sunday 23 Nov 2014 (Local Time) from KNY0 Reporting Station
Overcast Overcast  
Wind Chill: 38°   Ceiling: 3100
Heat Index: 38°   Visibility: 10mi
Dew Point: 35°   Wind: 3mph
Humidity: 88%   Direction: 160°SSE
Pressure: 30.1"   Gusts: NA
Location:  43.0176°N, 74.3982°W
Report Text: KNY0 231335Z AUTO 16003KT 10SM OVC031 04/02 A3010 RMK AO2 T00350017
Loading
Personal Weather Stations






























Interactive Weather Map New forecast layout! Learn more

10-Day Weather Forecast

Advertisements
Track Severe Weather on mobile